AXX256 KAPC-KNLC
Flight info
| Callsign | AXX256 |
|---|---|
| Flight time | N/A |
| Altitude | 0 |
| Route | KDVO KOAK KSFO KRHV KCVH |
| Aircraft | DHC2/L-DOV/C |
Departure
| Time | 2026-04-11 14:53 |
|---|---|
| Airport | Napa County Airport (KAPC) |
Arrival
| Time | N/A |
|---|---|
| Airport | Lemoore Naval Air Station (Reeves Field) Airport (KNLC) |
| Time | Latitude | Longitude | Altitude | Speed | Heading |
|---|---|---|---|---|---|
| 2026-04-11 14:40 | 38.21719 | -122.27492 | 28 ft | 0 kts | 243° |
| 2026-04-11 14:50 | 38.21708 | -122.27504 | 24 ft | 4 kts | 193° |
| 2026-04-11 14:50 | 38.21663 | -122.27509 | 24 ft | 7 kts | 215° |
| 2026-04-11 14:50 | 38.21690 | -122.27553 | 23 ft | 9 kts | 341° |
| 2026-04-11 14:51 | 38.21777 | -122.27605 | 22 ft | 17 kts | 330° |
| 2026-04-11 14:51 | 38.21816 | -122.27718 | 22 ft | 15 kts | 280° |
| 2026-04-11 14:51 | 38.21845 | -122.27826 | 21 ft | 11 kts | 286° |
| 2026-04-11 14:51 | 38.21872 | -122.27924 | 20 ft | 14 kts | 298° |
| 2026-04-11 14:52 | 38.21868 | -122.28020 | 20 ft | 8 kts | 203° |
| 2026-04-11 14:52 | 38.21839 | -122.28032 | 20 ft | 6 kts | 199° |
| 2026-04-11 14:52 | 38.21561 | -122.28165 | 49 ft | 69 kts | 200° |
| 2026-04-11 14:52 | 38.21067 | -122.28482 | 250 ft | 87 kts | 202° |
| 2026-04-11 14:53 | 38.20615 | -122.29013 | 544 ft | 93 kts | 239° |
| 2026-04-11 14:53 | 38.20400 | -122.29841 | 740 ft | 101 kts | 251° |
| 2026-04-11 14:53 | 38.20211 | -122.30670 | 904 ft | 95 kts | 251° |
| 2026-04-11 14:53 | 38.20032 | -122.31464 | 1069 ft | 91 kts | 251° |
| 2026-04-11 14:54 | 38.19865 | -122.32213 | 1234 ft | 87 kts | 251° |
| 2026-04-11 14:54 | 38.19706 | -122.32941 | 1400 ft | 84 kts | 251° |
| 2026-04-11 14:54 | 38.19554 | -122.33644 | 1567 ft | 81 kts | 251° |
| 2026-04-11 14:54 | 38.19411 | -122.34319 | 1732 ft | 78 kts | 250° |
| 2026-04-11 14:55 | 38.19281 | -122.34982 | 1897 ft | 75 kts | 250° |
| 2026-04-11 14:55 | 38.19167 | -122.35626 | 2025 ft | 78 kts | 251° |
| 2026-04-11 14:55 | 38.19036 | -122.36371 | 2059 ft | 93 kts | 251° |
| 2026-04-11 14:55 | 38.18878 | -122.37245 | 2022 ft | 109 kts | 252° |
| 2026-04-11 14:56 | 38.18698 | -122.38226 | 1969 ft | 118 kts | 252° |
| 2026-04-11 14:56 | 38.18509 | -122.39249 | 1905 ft | 121 kts | 252° |
| 2026-04-11 14:56 | 38.18319 | -122.40302 | 1833 ft | 122 kts | 252° |
| 2026-04-11 14:56 | 38.18134 | -122.41351 | 1759 ft | 122 kts | 252° |
| 2026-04-11 14:57 | 38.17949 | -122.42411 | 1681 ft | 121 kts | 252° |
| 2026-04-11 14:57 | 38.17768 | -122.43452 | 1605 ft | 121 kts | 252° |
| 2026-04-11 14:57 | 38.17582 | -122.44503 | 1481 ft | 125 kts | 252° |
| 2026-04-11 14:57 | 38.17384 | -122.45598 | 1309 ft | 129 kts | 252° |
| 2026-04-11 14:58 | 38.17173 | -122.46703 | 1132 ft | 130 kts | 252° |
| 2026-04-11 14:58 | 38.16947 | -122.47813 | 1020 ft | 127 kts | 252° |
| 2026-04-11 14:58 | 38.16722 | -122.48869 | 1016 ft | 121 kts | 252° |
| 2026-04-11 14:58 | 38.16494 | -122.49882 | 1012 ft | 118 kts | 252° |
| 2026-04-11 14:59 | 38.16263 | -122.50877 | 1013 ft | 116 kts | 252° |
| 2026-04-11 14:59 | 38.16040 | -122.51836 | 1009 ft | 111 kts | 252° |
| 2026-04-11 14:59 | 38.15820 | -122.52768 | 1008 ft | 106 kts | 252° |
| 2026-04-11 14:59 | 38.15619 | -122.53619 | 994 ft | 92 kts | 252° |
| 2026-04-11 15:00 | 38.15499 | -122.54335 | 973 ft | 75 kts | 267° |
| 2026-04-11 15:00 | 38.15479 | -122.55005 | 780 ft | 76 kts | 266° |
| 2026-04-11 15:00 | 38.15418 | -122.55671 | 564 ft | 76 kts | 259° |
| 2026-04-11 15:00 | 38.15135 | -122.56137 | 321 ft | 67 kts | 184° |
| 2026-04-11 15:01 | 38.14679 | -122.55945 | 24 ft | 63 kts | 148° |
| 2026-04-11 15:01 | 38.14380 | -122.55737 | 5 ft | 29 kts | 149° |
| 2026-04-11 15:01 | 38.14335 | -122.55701 | 5 ft | 0 kts | 148° |
| 2026-04-11 15:03 | 38.14309 | -122.55682 | 6 ft | 23 kts | 148° |
| 2026-04-11 15:04 | 38.13987 | -122.55431 | 78 ft | 73 kts | 150° |
| 2026-04-11 15:04 | 38.13497 | -122.55090 | 304 ft | 88 kts | 143° |
| 2026-04-11 15:04 | 38.12949 | -122.54611 | 457 ft | 98 kts | 145° |
| 2026-04-11 15:04 | 38.12372 | -122.54131 | 581 ft | 97 kts | 146° |
| 2026-04-11 15:05 | 38.11813 | -122.53674 | 699 ft | 95 kts | 145° |
| 2026-04-11 15:05 | 38.11259 | -122.53225 | 817 ft | 93 kts | 144° |
| 2026-04-11 15:05 | 38.10720 | -122.52790 | 937 ft | 92 kts | 144° |
| 2026-04-11 15:05 | 38.10178 | -122.52354 | 1061 ft | 90 kts | 143° |
| 2026-04-11 15:06 | 38.09652 | -122.51930 | 1185 ft | 89 kts | 144° |
| 2026-04-11 15:06 | 38.09129 | -122.51510 | 1310 ft | 88 kts | 144° |
| 2026-04-11 15:06 | 38.08613 | -122.51096 | 1434 ft | 87 kts | 145° |
| 2026-04-11 15:06 | 38.08092 | -122.50678 | 1519 ft | 91 kts | 146° |
| 2026-04-11 15:07 | 38.07533 | -122.50233 | 1531 ft | 98 kts | 147° |
| 2026-04-11 15:07 | 38.06940 | -122.49763 | 1530 ft | 103 kts | 147° |
| 2026-04-11 15:07 | 38.06330 | -122.49279 | 1524 ft | 103 kts | 147° |
| 2026-04-11 15:07 | 38.05712 | -122.48786 | 1526 ft | 106 kts | 147° |
| 2026-04-11 15:08 | 38.05080 | -122.48283 | 1525 ft | 107 kts | 147° |
| 2026-04-11 15:08 | 38.04441 | -122.47774 | 1524 ft | 108 kts | 147° |
| 2026-04-11 15:08 | 38.03804 | -122.47266 | 1524 ft | 108 kts | 147° |
| 2026-04-11 15:08 | 38.03160 | -122.46753 | 1524 ft | 109 kts | 147° |
| 2026-04-11 15:09 | 38.02525 | -122.46246 | 1523 ft | 109 kts | 147° |
| 2026-04-11 15:09 | 38.01880 | -122.45731 | 1523 ft | 109 kts | 147° |
| 2026-04-11 15:09 | 38.01235 | -122.45217 | 1523 ft | 109 kts | 147° |
| 2026-04-11 15:09 | 38.00590 | -122.44703 | 1523 ft | 109 kts | 147° |
| 2026-04-11 15:10 | 37.99950 | -122.44192 | 1523 ft | 109 kts | 147° |
| 2026-04-11 15:10 | 37.99309 | -122.43681 | 1524 ft | 109 kts | 147° |
| 2026-04-11 15:10 | 37.98663 | -122.43167 | 1524 ft | 109 kts | 147° |
| 2026-04-11 15:10 | 37.98023 | -122.42657 | 1524 ft | 109 kts | 147° |
| 2026-04-11 15:11 | 37.97384 | -122.42147 | 1524 ft | 109 kts | 147° |
| 2026-04-11 15:11 | 37.96739 | -122.41634 | 1524 ft | 109 kts | 147° |
| 2026-04-11 15:11 | 37.96100 | -122.41125 | 1524 ft | 109 kts | 147° |
| 2026-04-11 15:11 | 37.95450 | -122.40608 | 1524 ft | 109 kts | 147° |
| 2026-04-11 15:12 | 37.94808 | -122.40096 | 1524 ft | 109 kts | 147° |
| 2026-04-11 15:12 | 37.94165 | -122.39586 | 1525 ft | 109 kts | 147° |
| 2026-04-11 15:12 | 37.93530 | -122.39080 | 1527 ft | 109 kts | 147° |
| 2026-04-11 15:12 | 37.92886 | -122.38568 | 1525 ft | 109 kts | 147° |
| 2026-04-11 15:13 | 37.92238 | -122.38052 | 1524 ft | 109 kts | 147° |
| 2026-04-11 15:13 | 37.91594 | -122.37540 | 1523 ft | 109 kts | 147° |
| 2026-04-11 15:13 | 37.90955 | -122.37032 | 1529 ft | 109 kts | 147° |
| 2026-04-11 15:13 | 37.90310 | -122.36520 | 1526 ft | 109 kts | 147° |
| 2026-04-11 15:14 | 37.89660 | -122.36003 | 1525 ft | 109 kts | 147° |
| 2026-04-11 15:14 | 37.89019 | -122.35494 | 1526 ft | 109 kts | 147° |
| 2026-04-11 15:14 | 37.88378 | -122.34985 | 1526 ft | 109 kts | 147° |
| 2026-04-11 15:14 | 37.87736 | -122.34473 | 1525 ft | 109 kts | 147° |
| 2026-04-11 15:15 | 37.87094 | -122.33964 | 1528 ft | 108 kts | 147° |
| 2026-04-11 15:15 | 37.86456 | -122.33457 | 1530 ft | 107 kts | 148° |
| 2026-04-11 15:15 | 37.85834 | -122.32964 | 1533 ft | 105 kts | 148° |
| 2026-04-11 15:15 | 37.85218 | -122.32475 | 1536 ft | 103 kts | 148° |
| 2026-04-11 15:16 | 37.84616 | -122.31999 | 1536 ft | 102 kts | 148° |
| 2026-04-11 15:16 | 37.84013 | -122.31521 | 1537 ft | 101 kts | 148° |
| 2026-04-11 15:16 | 37.83415 | -122.31049 | 1538 ft | 101 kts | 148° |
| 2026-04-11 15:16 | 37.82818 | -122.30575 | 1538 ft | 100 kts | 148° |
| 2026-04-11 15:17 | 37.82227 | -122.30106 | 1538 ft | 100 kts | 148° |
| 2026-04-11 15:17 | 37.81643 | -122.29641 | 1538 ft | 99 kts | 148° |
| 2026-04-11 15:17 | 37.81049 | -122.29170 | 1539 ft | 99 kts | 148° |
| 2026-04-11 15:17 | 37.80465 | -122.28706 | 1538 ft | 98 kts | 148° |
| 2026-04-11 15:18 | 37.79885 | -122.28249 | 1540 ft | 99 kts | 148° |
| 2026-04-11 15:18 | 37.79297 | -122.27786 | 1540 ft | 99 kts | 148° |
| 2026-04-11 15:18 | 37.78710 | -122.27320 | 1539 ft | 100 kts | 148° |
| 2026-04-11 15:18 | 37.78110 | -122.26844 | 1526 ft | 102 kts | 148° |
| 2026-04-11 15:19 | 37.77508 | -122.26367 | 1523 ft | 102 kts | 148° |
| 2026-04-11 15:19 | 37.76917 | -122.25902 | 1507 ft | 86 kts | 149° |
| 2026-04-11 15:19 | 37.76463 | -122.25545 | 1409 ft | 81 kts | 149° |
| 2026-04-11 15:19 | 37.76006 | -122.25228 | 1301 ft | 67 kts | 150° |
| 2026-04-11 15:20 | 37.75626 | -122.24931 | 1106 ft | 65 kts | 148° |
| 2026-04-11 15:20 | 37.75234 | -122.24640 | 961 ft | 64 kts | 154° |
| 2026-04-11 15:20 | 37.74838 | -122.24391 | 836 ft | 64 kts | 152° |
| 2026-04-11 15:20 | 37.74460 | -122.24123 | 754 ft | 60 kts | 145° |
| 2026-04-11 15:21 | 37.74100 | -122.23819 | 617 ft | 65 kts | 149° |
| 2026-04-11 15:21 | 37.73717 | -122.23510 | 477 ft | 65 kts | 146° |
| 2026-04-11 15:21 | 37.73331 | -122.23189 | 313 ft | 67 kts | 148° |
| 2026-04-11 15:21 | 37.72997 | -122.22811 | 172 ft | 62 kts | 134° |
| 2026-04-11 15:22 | 37.72805 | -122.22374 | 49 ft | 53 kts | 115° |
| 2026-04-11 15:22 | 37.72673 | -122.21960 | 21 ft | 46 kts | 116° |
| 2026-04-11 15:22 | 37.72555 | -122.21614 | 8 ft | 38 kts | 115° |
| 2026-04-11 15:22 | 37.72489 | -122.21416 | 8 ft | 0 kts | 107° |